createdAt,value
2017-09-28T00:01:51.124Z,15.50
2017-09-28T00:04:18.296Z,15.40
2017-09-28T00:06:44.482Z,15.40
2017-09-28T00:09:11.814Z,15.40
2017-09-28T00:11:37.996Z,15.50
2017-09-28T00:14:04.939Z,15.60
2017-09-28T00:16:31.867Z,15.60
2017-09-28T00:18:58.054Z,15.60
2017-09-28T00:23:52.428Z,15.70
2017-09-28T00:26:19.981Z,15.70
2017-09-28T00:28:46.917Z,15.70
2017-09-28T00:31:13.514Z,15.70
2017-09-28T00:33:39.726Z,15.60
2017-09-28T00:36:05.934Z,15.50
2017-09-28T00:38:32.893Z,15.50
2017-09-28T00:40:59.109Z,15.50
2017-09-28T00:43:26.043Z,15.50
2017-09-28T00:45:52.623Z,15.40
2017-09-28T00:48:18.794Z,15.50
2017-09-28T00:50:45.341Z,15.50
2017-09-28T00:53:12.238Z,15.50
2017-09-28T00:55:38.478Z,15.40
2017-09-28T00:58:04.646Z,15.50
2017-09-28T01:00:30.851Z,15.40
2017-09-28T01:02:57.045Z,15.40
2017-09-28T01:05:23.214Z,15.40
2017-09-28T01:07:49.382Z,15.40
2017-09-28T01:10:15.587Z,15.30
2017-09-28T01:12:42.526Z,15.40
2017-09-28T01:15:08.704Z,15.40
2017-09-28T01:17:34.933Z,15.30
2017-09-28T01:20:01.155Z,15.30
2017-09-28T01:22:27.424Z,15.20
2017-09-28T01:24:53.640Z,15.30
2017-09-28T01:27:19.887Z,15.30
2017-09-28T01:29:46.997Z,15.30
2017-09-28T01:32:14.539Z,15.30
2017-09-28T01:34:40.793Z,15.30
2017-09-28T01:37:06.962Z,15.30
2017-09-28T01:39:34.102Z,15.30
2017-09-28T01:42:00.326Z,15.20
2017-09-28T01:44:27.321Z,15.10
2017-09-28T01:46:53.526Z,15.20
2017-09-28T01:49:20.473Z,15.20
2017-09-28T01:51:47.098Z,15.30
2017-09-28T01:54:14.663Z,15.30
2017-09-28T01:56:41.607Z,15.10
2017-09-28T01:59:08.544Z,15.10
2017-09-28T02:01:34.743Z,15.20
2017-09-28T02:04:00.956Z,15.20
2017-09-28T02:06:27.194Z,15.20
2017-09-28T02:08:53.405Z,15.20
2017-09-28T02:11:19.611Z,15.20
2017-09-28T02:13:46.564Z,15.10
2017-09-28T02:16:14.266Z,15.20
2017-09-28T02:18:40.439Z,15.30
2017-09-28T02:21:07.373Z,15.30
2017-09-28T02:23:33.599Z,15.30
2017-09-28T02:25:59.802Z,15.30
2017-09-28T02:28:26.018Z,15.20
2017-09-28T02:30:52.216Z,15.20
2017-09-28T02:33:19.948Z,15.10
2017-09-28T02:35:46.878Z,15.10
2017-09-28T02:38:13.047Z,15.10
2017-09-28T02:40:39.986Z,15.20
2017-09-28T02:43:06.947Z,15.30
2017-09-28T02:45:33.859Z,15.20
2017-09-28T02:48:00.812Z,15.10
2017-09-28T02:50:27.714Z,15.10
2017-09-28T02:52:54.305Z,15.00
2017-09-28T02:55:21.267Z,15.00
2017-09-28T02:57:48.210Z,15.00
2017-09-28T03:00:14.425Z,15.00
2017-09-28T03:02:41.365Z,15.10
2017-09-28T03:05:07.534Z,15.10
2017-09-28T03:07:34.014Z,15.00
2017-09-28T03:10:01.674Z,15.10
2017-09-28T03:12:27.862Z,12.00
2017-09-28T03:14:54.031Z,15.10
2017-09-28T03:17:20.190Z,15.10
2017-09-28T03:19:47.156Z,15.00
2017-09-28T03:22:13.369Z,15.10
2017-09-28T03:24:39.558Z,14.90
2017-09-28T03:27:05.726Z,15.00
2017-09-28T03:29:32.656Z,14.90
2017-09-28T03:34:26.746Z,14.90
2017-09-28T03:36:53.688Z,14.90
2017-09-28T03:39:20.663Z,14.90
2017-09-28T03:41:46.943Z,14.90
2017-09-28T03:44:13.105Z,14.90
2017-09-28T03:46:40.033Z,14.90
2017-09-28T03:49:07.683Z,14.80
2017-09-28T03:51:33.855Z,14.80
2017-09-28T03:54:00.782Z,14.80
2017-09-28T03:56:27.664Z,14.90
2017-09-28T03:58:53.845Z,14.80
2017-09-28T04:01:20.649Z,14.90
2017-09-28T04:03:46.853Z,14.90
2017-09-28T04:06:13.020Z,14.90
2017-09-28T04:08:39.216Z,14.80
2017-09-28T04:11:05.426Z,14.80
2017-09-28T04:13:32.364Z,14.70
2017-09-28T04:16:00.081Z,14.70
2017-09-28T04:18:26.263Z,14.70
2017-09-28T04:20:53.193Z,14.70
2017-09-28T04:23:20.127Z,14.70
2017-09-28T04:25:46.377Z,14.70
2017-09-28T04:28:13.296Z,14.60
2017-09-28T04:30:39.468Z,14.60
2017-09-28T04:33:05.661Z,14.70
2017-09-28T04:35:32.620Z,14.70
2017-09-28T04:37:59.550Z,14.60
2017-09-28T04:40:25.742Z,14.60
2017-09-28T04:42:51.940Z,14.70
2017-09-28T04:45:18.150Z,14.70
2017-09-28T04:47:45.102Z,14.60
2017-09-28T04:50:11.653Z,14.70
2017-09-28T04:52:37.847Z,14.80
2017-09-28T04:55:04.053Z,14.90
2017-09-28T04:57:30.270Z,14.80
2017-09-28T04:59:56.476Z,14.70
2017-09-28T05:02:22.664Z,14.80
2017-09-28T05:04:49.602Z,14.80
2017-09-28T05:09:43.760Z,14.90
2017-09-28T05:12:09.982Z,14.90
2017-09-28T05:14:37.588Z,14.80
2017-09-28T05:17:04.507Z,14.70
2017-09-28T05:19:31.080Z,14.80
2017-09-28T05:21:57.279Z,14.80
2017-09-28T05:24:23.445Z,14.80
2017-09-28T05:26:49.643Z,14.80
2017-09-28T05:29:16.580Z,14.80
2017-09-28T05:31:42.734Z,14.80
2017-09-28T05:34:08.981Z,14.90
2017-09-28T05:36:36.044Z,14.80
2017-09-28T05:39:04.457Z,14.80
2017-09-28T05:41:30.672Z,14.80
2017-09-28T05:43:56.876Z,14.80
2017-09-28T05:46:23.802Z,14.90
2017-09-28T05:48:49.974Z,14.90
2017-09-28T05:51:16.184Z,14.90
2017-09-28T05:53:42.396Z,15.00
2017-09-28T05:56:09.393Z,15.20
2017-09-28T05:58:35.614Z,15.30
2017-09-28T06:01:02.413Z,15.10
2017-09-28T06:03:29.419Z,15.20
2017-09-28T06:05:55.554Z,15.20
2017-09-28T06:08:21.797Z,15.10
2017-09-28T06:10:47.958Z,15.20
2017-09-28T06:13:14.885Z,15.30
2017-09-28T06:15:41.826Z,15.20
2017-09-28T06:18:08.015Z,15.20
2017-09-28T06:20:34.228Z,15.10
2017-09-28T06:23:00.411Z,15.10
2017-09-28T06:25:26.563Z,15.10
2017-09-28T06:27:53.118Z,15.10
2017-09-28T06:30:19.294Z,15.20
2017-09-28T06:32:45.487Z,15.40
2017-09-28T06:35:11.690Z,15.40
2017-09-28T06:37:38.821Z,15.50
2017-09-28T06:40:05.743Z,15.60
2017-09-28T06:42:33.450Z,15.70
2017-09-28T06:44:59.619Z,15.70
2017-09-28T06:47:25.806Z,15.90
2017-09-28T06:49:54.657Z,15.90
2017-09-28T06:52:21.566Z,16.00
2017-09-28T06:54:49.475Z,16.20
2017-09-28T06:57:15.835Z,16.30
2017-09-28T06:59:42.067Z,16.30
2017-09-28T07:02:08.252Z,16.20
2017-09-28T07:04:34.478Z,16.20
2017-09-28T07:07:00.722Z,16.10
2017-09-28T07:09:26.938Z,16.10
2017-09-28T07:11:53.088Z,16.00
2017-09-28T07:14:20.042Z,15.90
2017-09-28T07:16:46.985Z,16.00
2017-09-28T07:19:13.899Z,16.00
2017-09-28T07:21:40.107Z,15.90
2017-09-28T07:24:06.318Z,16.00
2017-09-28T07:26:32.493Z,16.10
2017-09-28T07:28:58.669Z,16.00
2017-09-28T07:31:25.651Z,16.10
2017-09-28T07:33:51.847Z,16.10
2017-09-28T07:36:18.824Z,16.10
2017-09-28T07:38:45.042Z,16.40
2017-09-28T07:41:11.231Z,16.60
2017-09-28T07:43:38.173Z,17.60
2017-09-28T07:46:05.115Z,18.20
2017-09-28T07:48:32.374Z,18.70
2017-09-28T07:50:59.304Z,18.80
2017-09-28T07:53:26.233Z,18.90
2017-09-28T07:55:52.403Z,18.90
2017-09-28T07:58:18.585Z,18.70
2017-09-28T08:00:45.132Z,18.40
2017-09-28T08:03:11.321Z,18.20
2017-09-28T08:05:37.512Z,18.10
2017-09-28T08:08:04.452Z,17.80
2017-09-28T08:10:31.422Z,17.60
2017-09-28T08:12:57.628Z,17.50
2017-09-28T08:15:24.567Z,17.30
2017-09-28T08:17:51.513Z,17.20
2017-09-28T08:20:18.447Z,17.10
2017-09-28T08:22:44.656Z,17.10
2017-09-28T08:25:10.874Z,17.10
2017-09-28T08:27:37.472Z,17.10
2017-09-28T08:32:32.350Z,17.10
2017-09-28T08:34:58.556Z,17.10
2017-09-28T08:37:25.087Z,17.30
2017-09-28T08:39:51.244Z,17.30
2017-09-28T08:42:17.451Z,17.30
2017-09-28T08:44:43.670Z,17.50
2017-09-28T08:47:09.873Z,17.50
2017-09-28T08:49:36.054Z,17.60
2017-09-28T08:52:02.247Z,17.50
2017-09-28T08:54:28.443Z,17.50
2017-09-28T08:56:55.375Z,17.60
2017-09-28T08:59:22.313Z,17.60
2017-09-28T09:01:48.482Z,17.70
2017-09-28T09:04:15.274Z,17.70
2017-09-28T09:06:41.464Z,17.90
2017-09-28T09:09:07.655Z,18.00
2017-09-28T09:11:34.557Z,18.00
2017-09-28T09:14:00.751Z,17.90
2017-09-28T09:16:26.891Z,18.10
2017-09-28T09:18:53.095Z,18.20
2017-09-28T09:21:20.019Z,18.60
2017-09-28T09:23:46.943Z,18.60
2017-09-28T09:26:13.116Z,18.60
2017-09-28T09:28:39.337Z,18.80
2017-09-28T09:31:05.495Z,18.90
2017-09-28T09:33:31.688Z,18.90
2017-09-28T09:35:58.622Z,19.40
2017-09-28T09:38:25.552Z,19.90
2017-09-28T09:40:51.754Z,19.90
2017-09-28T09:43:17.992Z,20.10
2017-09-28T09:45:44.238Z,20.30
2017-09-28T09:48:10.416Z,20.50
2017-09-28T09:50:36.629Z,20.30
2017-09-28T09:53:02.824Z,20.10
2017-09-28T09:55:29.010Z,20.10
2017-09-28T09:57:55.198Z,20.30
2017-09-28T10:00:22.116Z,20.90
2017-09-28T10:02:48.342Z,21.10
2017-09-28T10:05:14.551Z,21.70
2017-09-28T10:07:51.147Z,22.00
2017-09-28T10:10:21.161Z,21.80
2017-09-28T10:12:57.929Z,21.90
2017-09-28T10:15:28.458Z,21.80
2017-09-28T10:17:54.716Z,21.60
2017-09-28T10:20:20.944Z,21.40
2017-09-28T10:22:47.147Z,21.40
2017-09-28T10:25:13.335Z,21.30
2017-09-28T10:27:39.495Z,21.30
2017-09-28T10:30:05.744Z,21.30
2017-09-28T10:32:31.902Z,21.20
2017-09-28T10:34:58.855Z,21.10
2017-09-28T10:37:25.787Z,21.10
2017-09-28T10:39:52.701Z,21.30
2017-09-28T10:42:18.864Z,21.20
2017-09-28T10:44:46.551Z,21.40
2017-09-28T10:47:12.703Z,21.80
2017-09-28T10:49:38.886Z,21.90
2017-09-28T10:52:05.779Z,22.60
2017-09-28T10:54:31.954Z,22.70
2017-09-28T10:56:58.945Z,22.80
2017-09-28T10:59:25.136Z,22.80
2017-09-28T11:01:52.043Z,22.80
2017-09-28T11:04:18.227Z,22.90
2017-09-28T11:06:44.397Z,23.20
2017-09-28T11:09:10.618Z,23.50
2017-09-28T11:11:36.847Z,23.30
2017-09-28T11:14:03.044Z,23.30
2017-09-28T11:16:29.236Z,23.20
2017-09-28T11:18:55.451Z,23.30
2017-09-28T11:21:21.661Z,23.70
2017-09-28T11:23:47.880Z,24.20
2017-09-28T11:26:14.076Z,25.00
2017-09-28T11:28:40.235Z,25.80
2017-09-28T11:31:06.416Z,26.40
2017-09-28T11:33:33.323Z,25.70
2017-09-28T11:35:59.507Z,25.20
2017-09-28T11:38:25.674Z,24.50
2017-09-28T11:40:51.843Z,23.80
2017-09-28T11:43:18.788Z,22.80
2017-09-28T11:45:45.693Z,22.70
2017-09-28T11:48:12.187Z,22.60
2017-09-28T11:50:38.363Z,22.50
2017-09-28T11:53:04.558Z,22.40
2017-09-28T11:55:30.754Z,22.40
2017-09-28T11:57:57.697Z,22.50
2017-09-28T12:00:24.615Z,22.80
2017-09-28T12:02:50.810Z,23.00
2017-09-28T12:05:17.007Z,23.20
2017-09-28T12:07:44.398Z,23.10
2017-09-28T12:10:11.406Z,23.10
2017-09-28T12:12:37.618Z,22.60
2017-09-28T12:15:04.576Z,22.50
2017-09-28T12:17:31.556Z,22.60
2017-09-28T12:19:57.719Z,22.60
2017-09-28T12:22:23.906Z,23.80
2017-09-28T12:24:50.097Z,24.30
2017-09-28T12:27:17.023Z,25.70
2017-09-28T12:29:43.246Z,26.50
2017-09-28T12:32:09.487Z,26.50
2017-09-28T12:34:35.674Z,27.10
2017-09-28T12:37:01.876Z,27.80
2017-09-28T12:39:28.821Z,28.00
2017-09-28T12:41:56.546Z,27.20
2017-09-28T12:44:22.714Z,27.20
2017-09-28T12:46:49.604Z,26.10
2017-09-28T12:49:15.788Z,26.10
2017-09-28T12:51:41.949Z,26.20
2017-09-28T12:54:08.180Z,26.20
2017-09-28T12:56:34.363Z,25.90
2017-09-28T12:59:01.319Z,25.70
2017-09-28T13:01:28.231Z,26.00
2017-09-28T13:03:54.420Z,26.30
2017-09-28T13:06:20.635Z,26.40
2017-09-28T13:08:46.809Z,26.20
2017-09-28T13:11:13.040Z,25.60
2017-09-28T13:13:39.226Z,25.00
2017-09-28T13:16:05.375Z,24.50
2017-09-28T13:18:31.542Z,24.00
2017-09-28T13:20:57.733Z,23.30
2017-09-28T13:23:23.948Z,22.90
2017-09-28T13:25:50.123Z,22.70
2017-09-28T13:28:16.320Z,22.70
2017-09-28T13:30:42.538Z,22.60
2017-09-28T13:33:08.756Z,22.50
2017-09-28T13:35:34.950Z,22.40
2017-09-28T13:51:06.139Z,22.30
2017-09-28T13:53:32.328Z,22.20
2017-09-28T13:55:59.327Z,22.00
2017-09-28T13:58:25.586Z,21.90
2017-09-28T14:00:52.599Z,21.90
2017-09-28T14:03:18.795Z,21.90
2017-09-28T14:05:44.984Z,21.80
2017-09-28T14:08:11.288Z,21.80
2017-09-28T14:10:37.478Z,21.80
2017-09-28T14:13:03.660Z,21.90
2017-09-28T14:15:29.858Z,21.80
2017-09-28T14:17:56.051Z,21.70
2017-09-28T14:20:22.987Z,21.70
2017-09-28T14:22:49.921Z,21.80
2017-09-28T14:25:16.159Z,21.90
2017-09-28T14:27:43.050Z,22.10
2017-09-28T14:30:09.211Z,22.50
2017-09-28T14:32:35.407Z,22.80
2017-09-28T14:35:01.601Z,22.90
2017-09-28T14:37:28.543Z,23.30
2017-09-28T14:39:55.469Z,23.40
2017-09-28T14:42:21.639Z,23.40
2017-09-28T14:44:47.863Z,23.20
2017-09-28T14:47:14.039Z,23.00
2017-09-28T14:49:40.227Z,22.70
2017-09-28T14:52:06.448Z,22.30
2017-09-28T14:54:32.609Z,22.20
2017-09-28T14:56:58.779Z,22.20
2017-09-28T14:59:25.707Z,22.10
2017-09-28T15:01:53.362Z,22.00
2017-09-28T15:04:19.538Z,22.00
2017-09-28T15:06:45.787Z,22.10
2017-09-28T15:09:11.993Z,22.00
2017-09-28T15:11:38.173Z,22.00
2017-09-28T15:14:04.391Z,22.00
2017-09-28T15:16:30.566Z,21.80
2017-09-28T15:18:57.484Z,21.80
2017-09-28T15:21:24.479Z,20.90
2017-09-28T15:23:50.634Z,21.70
2017-09-28T15:26:16.855Z,21.70
2017-09-28T15:28:43.034Z,21.70
2017-09-28T15:31:09.946Z,21.70
2017-09-28T15:33:36.157Z,21.60
2017-09-28T15:36:02.330Z,21.60
2017-09-28T15:38:29.259Z,21.60
2017-09-28T15:40:55.523Z,21.60
2017-09-28T15:43:22.467Z,21.60
2017-09-28T15:45:49.427Z,21.60
2017-09-28T15:48:15.631Z,21.60
2017-09-28T15:50:42.562Z,21.50
2017-09-28T15:53:08.812Z,21.50
2017-09-28T15:55:35.751Z,21.40
2017-09-28T15:58:02.706Z,21.40
2017-09-28T16:00:28.913Z,21.30
2017-09-28T16:02:58.051Z,21.20
2017-09-28T16:05:24.279Z,21.20
2017-09-28T16:07:50.426Z,21.20
2017-09-28T16:10:16.656Z,21.20
2017-09-28T16:15:36.070Z,21.00
2017-09-28T16:18:02.286Z,21.10
2017-09-28T16:20:28.503Z,21.00
2017-09-28T16:22:54.680Z,20.90
2017-09-28T16:25:21.647Z,20.90
2017-09-28T16:27:47.849Z,20.90
2017-09-28T16:30:15.901Z,20.80
2017-09-28T16:32:42.107Z,20.70
2017-09-28T16:35:08.347Z,20.70
2017-09-28T16:37:34.531Z,20.70
2017-09-28T16:40:00.739Z,20.60
2017-09-28T16:42:30.032Z,20.60
2017-09-28T16:44:56.243Z,20.50
2017-09-28T16:47:22.478Z,20.60
2017-09-28T16:49:48.654Z,20.50
2017-09-28T16:52:15.239Z,20.50
2017-09-28T16:54:41.536Z,20.40
2017-09-28T16:57:07.709Z,20.30
2017-09-28T16:59:33.946Z,20.30
2017-09-28T17:02:00.902Z,20.30
2017-09-28T17:04:28.280Z,20.20
2017-09-28T17:06:54.478Z,20.20
2017-09-28T17:09:22.166Z,20.20
2017-09-28T17:11:48.326Z,20.10
2017-09-28T17:14:14.916Z,20.10
2017-09-28T17:16:43.066Z,20.10
2017-09-28T17:19:09.238Z,20.00
2017-09-28T17:21:35.430Z,20.00
2017-09-28T17:24:01.983Z,20.00
2017-09-28T17:26:28.951Z,20.00
2017-09-28T17:28:55.207Z,20.00
2017-09-28T17:31:21.871Z,20.00
2017-09-28T17:33:48.131Z,20.00
2017-09-28T17:36:16.662Z,19.90
2017-09-28T17:38:49.071Z,19.80
2017-09-28T17:41:15.248Z,19.90
2017-09-28T17:43:41.831Z,19.80
2017-09-28T17:46:08.378Z,19.80
2017-09-28T17:48:35.321Z,19.70
2017-09-28T17:51:02.367Z,19.70
2017-09-28T17:53:29.344Z,19.60
2017-09-28T17:55:55.736Z,19.60
2017-09-28T17:58:21.928Z,19.60
2017-09-28T18:00:48.225Z,19.50
2017-09-28T18:03:14.439Z,19.60
2017-09-28T18:05:41.374Z,19.60
2017-09-28T18:08:07.767Z,19.60
2017-09-28T18:10:33.952Z,19.50
2017-09-28T18:13:00.154Z,19.50
2017-09-28T18:15:26.355Z,19.50
2017-09-28T18:17:53.733Z,19.40
2017-09-28T18:20:20.981Z,19.50
2017-09-28T18:22:49.945Z,19.50
2017-09-28T18:25:16.196Z,18.80
2017-09-28T18:27:44.234Z,19.50
2017-09-28T18:30:10.785Z,19.40
2017-09-28T18:32:37.090Z,19.50
2017-09-28T18:35:04.039Z,19.60
2017-09-28T18:37:31.254Z,19.60
2017-09-28T18:39:57.444Z,19.70
2017-09-28T18:42:23.688Z,19.70
2017-09-28T18:44:49.920Z,19.60
2017-09-28T18:47:16.094Z,19.70
2017-09-28T18:49:42.360Z,19.70
2017-09-28T18:52:08.560Z,19.60
2017-09-28T18:54:35.823Z,19.60
2017-09-28T18:57:02.073Z,19.60
2017-09-28T18:59:28.339Z,19.50
2017-09-28T19:01:54.571Z,19.50
2017-09-28T19:04:21.567Z,19.40
2017-09-28T19:06:48.153Z,19.40
2017-09-28T19:09:14.408Z,19.40
2017-09-28T19:11:41.750Z,19.30
2017-09-28T19:14:08.722Z,19.30
2017-09-28T19:16:35.044Z,19.30
2017-09-28T19:19:01.310Z,19.20
2017-09-28T19:21:27.522Z,19.10
2017-09-28T19:23:54.031Z,19.20
2017-09-28T19:26:20.985Z,19.10
2017-09-28T19:28:47.953Z,19.10
2017-09-28T19:31:14.207Z,19.10
2017-09-28T19:33:40.447Z,19.00
2017-09-28T19:36:06.635Z,19.00
2017-09-28T19:38:32.837Z,19.00
2017-09-28T19:40:59.783Z,18.80
2017-09-28T19:43:26.307Z,18.70
2017-09-28T19:45:52.569Z,18.70
2017-09-28T19:48:18.743Z,18.70
2017-09-28T19:50:46.468Z,18.70
2017-09-28T19:53:12.674Z,18.60
2017-09-28T19:55:39.601Z,18.60
2017-09-28T19:58:06.957Z,18.60
2017-09-28T20:00:43.195Z,18.60
2017-09-28T20:03:11.263Z,18.70
2017-09-28T20:05:37.496Z,18.70
2017-09-28T20:08:03.661Z,18.60
2017-09-28T20:10:30.547Z,18.50
2017-09-28T20:12:56.738Z,18.60
2017-09-28T20:15:23.304Z,18.60
2017-09-28T20:17:49.904Z,18.60
2017-09-28T20:20:16.124Z,18.50
2017-09-28T20:22:42.379Z,18.50
2017-09-28T20:37:03.321Z,18.40
2017-09-28T20:39:29.636Z,18.40
2017-09-28T20:41:56.130Z,18.40
2017-09-28T20:44:22.391Z,18.40
2017-09-28T20:46:48.643Z,18.30
2017-09-28T20:49:14.827Z,18.30
2017-09-28T20:51:41.854Z,18.30
2017-09-28T20:54:08.090Z,18.30
2017-09-28T20:56:34.298Z,18.30
2017-09-28T20:59:00.545Z,18.30
2017-09-28T21:01:26.766Z,18.20
2017-09-28T21:03:52.984Z,18.20
2017-09-28T21:06:19.191Z,18.20
2017-09-28T21:08:45.448Z,18.20
2017-09-28T21:11:11.634Z,18.10
2017-09-28T21:13:38.932Z,18.10
2017-09-28T21:16:05.636Z,18.10
2017-09-28T21:18:31.824Z,18.10
2017-09-28T21:20:58.009Z,18.20
2017-09-28T21:23:24.219Z,18.20
2017-09-28T21:25:50.427Z,18.20
2017-09-28T21:28:17.600Z,18.20
2017-09-28T21:30:43.815Z,18.20
2017-09-28T21:33:10.421Z,18.20
2017-09-28T21:35:36.659Z,18.10
2017-09-28T21:38:03.620Z,18.20
2017-09-28T21:40:30.565Z,18.10
2017-09-28T21:42:56.747Z,18.10
2017-09-28T21:45:23.044Z,18.00
2017-09-28T21:47:49.215Z,18.00
2017-09-28T21:50:16.877Z,18.00
2017-09-28T21:52:43.067Z,17.80
2017-09-28T21:55:09.278Z,17.90
2017-09-28T21:57:36.176Z,17.90
2017-09-28T22:00:02.444Z,17.90
2017-09-28T22:02:30.280Z,17.90
2017-09-28T22:04:56.570Z,17.80
2017-09-28T22:07:22.788Z,17.70
2017-09-28T22:09:48.947Z,17.70
2017-09-28T22:12:15.180Z,17.70
2017-09-28T22:14:44.642Z,17.70
2017-09-28T22:17:11.676Z,17.70
2017-09-28T22:19:39.539Z,17.70
2017-09-28T22:22:06.470Z,17.70
2017-09-28T22:24:32.665Z,17.70
2017-09-28T22:26:58.848Z,17.70
2017-09-28T22:29:25.799Z,17.70
2017-09-28T22:31:52.688Z,17.70
2017-09-28T22:34:18.903Z,17.60
2017-09-28T22:36:45.313Z,17.60
2017-09-28T22:39:11.516Z,17.70
2017-09-28T22:41:38.449Z,17.70
2017-09-28T22:44:04.624Z,17.70
2017-09-28T22:46:30.841Z,17.70
2017-09-28T22:48:57.049Z,17.70
2017-09-28T22:51:23.964Z,17.70
2017-09-28T22:53:50.162Z,17.70
2017-09-28T22:56:16.378Z,17.70
2017-09-28T22:58:42.516Z,17.70
2017-09-28T23:01:09.204Z,17.70
2017-09-28T23:03:35.461Z,17.70
2017-09-28T23:06:02.407Z,17.70
2017-09-28T23:08:29.368Z,17.60
2017-09-28T23:10:55.554Z,17.60
2017-09-28T23:13:21.749Z,17.60
2017-09-28T23:15:47.942Z,17.50
2017-09-28T23:18:14.850Z,17.40
2017-09-28T23:20:41.042Z,17.40
2017-09-28T23:23:07.213Z,17.50
2017-09-28T23:25:33.430Z,17.50
2017-09-28T23:27:59.590Z,17.60
2017-09-28T23:30:26.495Z,17.60
2017-09-28T23:32:52.719Z,17.60
2017-09-28T23:35:18.903Z,17.60
2017-09-28T23:39:30.650Z,17.50
2017-09-28T23:41:56.867Z,17.50
2017-09-28T23:44:23.752Z,17.50
2017-09-28T23:46:50.084Z,17.50
2017-09-28T23:49:17.199Z,17.50
2017-09-28T23:51:43.397Z,17.50
2017-09-28T23:54:10.110Z,17.50
2017-09-28T23:56:37.126Z,17.50
2017-09-28T23:59:03.303Z,17.40
